Time;durP1;ratioP1;P1;durP2;ratioP2;P2;SDS_P1;SDS_P2;PMS_P1;PMS_P2;Temp;Humidity;BMP_temperature;BMP_pressure;BME280_temperature;BME280_humidity;BME280_pressure;Samples;Min_cycle;Max_cycle;Signal;HPM_P1;HPM_P2
2022/09/04 00:02:29;;;;;;;20.62;5.53;;;;;;;12.83;100.00;99339.57;2305109;77;20992;-55
2022/09/04 00:05:32;;;;;;;18.82;5.92;;;;;;;12.79;100.00;99346.44;2303176;77;21609;-55
2022/09/04 00:08:34;;;;;;;19.20;5.58;;;;;;;12.80;100.00;99352.92;2305047;77;21043;-55
2022/09/04 00:11:36;;;;;;;15.83;5.12;;;;;;;12.81;100.00;99349.36;2307100;77;21335;-55
2022/09/04 00:14:38;;;;;;;18.75;5.47;;;;;;;12.78;100.00;99342.11;2307706;77;21484;-55
2022/09/04 00:17:39;;;;;;;15.00;4.80;;;;;;;12.71;100.00;99344.75;2302441;77;21011;-55
2022/09/04 00:20:41;;;;;;;20.17;5.80;;;;;;;12.68;100.00;99350.20;2305638;77;21066;-56
2022/09/04 00:23:43;;;;;;;18.20;5.17;;;;;;;12.64;100.00;99348.21;2305475;77;20988;-56
2022/09/04 00:26:45;;;;;;;;;;;;;;;12.36;100.00;99348.58;2306010;77;21568;-57
2022/09/04 00:29:47;;;;;;;18.50;5.22;;;;;;;12.33;100.00;99350.08;2306511;76;20206;-55
2022/09/04 00:32:50;;;;;;;18.48;5.53;;;;;;;12.33;100.00;99356.66;2295032;77;21039;-55
2022/09/04 00:35:54;;;;;;;18.45;5.40;;;;;;;12.33;100.00;99364.55;2286883;77;21558;-55
2022/09/04 00:38:55;;;;;;;18.80;5.67;;;;;;;12.30;100.00;99371.31;2289044;77;21600;-56
2022/09/04 00:41:56;;;;;;;17.33;5.60;;;;;;;12.23;100.00;99374.77;2303684;77;20961;-55
2022/09/04 00:44:58;;;;;;;18.40;5.42;;;;;;;12.07;100.00;99373.52;2306248;77;21763;-55
2022/09/04 00:47:59;;;;;;;17.62;5.42;;;;;;;12.02;100.00;99368.14;2308825;77;20948;-55
2022/09/04 00:51:01;;;;;;;18.52;5.30;;;;;;;11.91;100.00;99370.03;2295700;77;21042;-56
2022/09/04 00:54:03;;;;;;;16.48;4.97;;;;;;;11.63;100.00;99365.53;2301379;77;20968;-56
2022/09/04 00:57:05;;;;;;;16.77;5.10;;;;;;;11.39;100.00;99360.70;2300786;77;21071;-56
2022/09/04 01:00:07;;;;;;;;;;;;;;;11.32;100.00;99367.23;2308204;76;20988;-56
2022/09/04 01:03:09;;;;;;;18.87;5.28;;;;;;;11.32;100.00;99364.61;2307586;76;20148;-56
2022/09/04 01:06:11;;;;;;;18.48;5.30;;;;;;;11.25;100.00;99361.02;2302150;77;21007;-56
2022/09/04 01:09:12;;;;;;;20.17;5.60;;;;;;;11.15;100.00;99356.34;2308618;76;21487;-56
2022/09/04 01:12:14;;;;;;;18.00;5.50;;;;;;;11.01;100.00;99359.27;2304773;77;21070;-56
2022/09/04 01:15:16;;;;;;;19.65;5.45;;;;;;;10.99;100.00;99369.45;2299239;77;21079;-55
2022/09/04 01:18:17;;;;;;;17.90;5.10;;;;;;;11.02;100.00;99371.47;2305460;77;21014;-55
2022/09/04 01:21:18;;;;;;;20.32;5.10;;;;;;;10.91;100.00;99373.82;2305184;77;20952;-55
2022/09/04 01:24:20;;;;;;;17.92;4.95;;;;;;;10.96;100.00;99373.56;2291667;77;21011;-55
2022/09/04 01:27:21;;;;;;;16.07;4.75;;;;;;;10.97;100.00;99379.20;2296563;77;20984;-55
2022/09/04 01:30:23;;;;;;;16.95;5.20;;;;;;;10.94;100.00;99373.66;2304539;77;21470;-55
2022/09/04 01:33:24;;;;;;;18.77;5.20;;;;;;;10.82;100.00;99374.30;2303606;77;20975;-55
2022/09/04 01:36:26;;;;;;;17.02;4.97;;;;;;;10.78;100.00;99373.63;2304088;77;20976;-55
2022/09/04 01:39:28;;;;;;;;;;;;;;;10.72;100.00;99375.27;2308539;77;21061;-55
2022/09/04 01:42:29;;;;;;;22.42;5.62;;;;;;;10.63;100.00;99378.36;2292762;76;20417;-55
2022/09/04 01:45:31;;;;;;;17.25;5.53;;;;;;;10.59;100.00;99380.31;2300617;77;20980;-55
2022/09/04 01:48:32;;;;;;;19.45;5.22;;;;;;;10.50;100.00;99382.95;2303427;77;21506;-55
2022/09/04 01:51:33;;;;;;;15.55;4.62;;;;;;;10.40;100.00;99389.58;2304714;77;20972;-55
2022/09/04 01:54:36;;;;;;;19.92;5.40;;;;;;;10.37;100.00;99393.23;2300043;77;21498;-55
2022/09/04 01:57:37;;;;;;;15.03;4.60;;;;;;;10.27;100.00;99395.04;2303597;77;20992;-55
2022/09/04 02:00:39;;;;;;;16.00;4.80;;;;;;;10.14;100.00;99393.50;2305533;77;20981;-56
2022/09/04 02:03:42;;;;;;;18.90;5.58;;;;;;;10.01;100.00;99392.81;2299927;77;21027;-55
2022/09/04 02:06:45;;;;;;;18.10;5.58;;;;;;;9.99;100.00;99389.88;2307434;77;21076;-55
2022/09/04 02:09:47;;;;;;;17.12;5.60;;;;;;;10.03;100.00;99396.67;2302935;77;20991;-55
2022/09/04 02:12:49;;;;;;;22.32;6.53;;;;;;;10.01;100.00;99401.12;2305362;77;20988;-55
2022/09/04 02:15:51;;;;;;;17.50;5.80;;;;;;;10.10;100.00;99400.68;2304655;77;20984;-55
2022/09/04 02:18:54;;;;;;;17.87;5.50;;;;;;;10.09;100.00;99404.22;2297476;77;20988;-55
2022/09/04 02:21:55;;;;;;;19.45;5.03;;;;;;;10.19;100.00;99409.86;2304083;76;20957;-55
2022/09/04 02:24:57;;;;;;;16.77;5.45;;;;;;;10.19;100.00;99404.61;2305017;77;21507;-55
2022/09/04 02:27:58;;;;;;;19.75;4.97;;;;;;;10.10;100.00;99403.30;2305407;77;20984;-55
2022/09/04 02:31:00;;;;;;;16.42;5.22;;;;;;;10.10;100.00;99401.13;2295802;77;21478;-56
2022/09/04 02:34:01;;;;;;;17.47;5.30;;;;;;;10.04;100.00;99405.77;2304743;77;20983;-55
2022/09/04 02:37:03;;;;;;;18.92;5.33;;;;;;;9.98;100.00;99410.45;2307479;77;21019;-56
2022/09/04 02:40:04;;;;;;;16.60;5.00;;;;;;;9.93;100.00;99401.51;2303847;77;20991;-55
2022/09/04 02:43:06;;;;;;;15.63;4.77;;;;;;;9.89;100.00;99396.87;2304698;77;20996;-55
2022/09/04 02:46:07;;;;;;;19.03;5.77;;;;;;;9.91;100.00;99394.17;2303185;77;21019;-55
2022/09/04 02:49:09;;;;;;;17.23;5.10;;;;;;;10.00;100.00;99402.06;2304488;77;21059;-55
2022/09/04 02:52:11;;;;;;;16.87;5.10;;;;;;;9.99;100.00;99399.05;2306245;77;21074;-55
2022/09/04 02:55:13;;;;;;;18.00;5.10;;;;;;;9.85;100.00;99399.24;2303584;77;21007;-55
2022/09/04 02:58:14;;;;;;;20.57;5.55;;;;;;;9.89;100.00;99393.41;2303596;77;20996;-55
2022/09/04 03:01:21;;;;;;;18.50;5.62;;;;;;;9.89;100.00;99399.95;2304834;77;20985;-55
2022/09/04 03:04:19;;;;;;;23.00;5.42;;;;;;;9.83;100.00;99405.03;2285973;77;20984;-55
2022/09/04 03:07:21;;;;;;;16.00;5.08;;;;;;;9.79;100.00;99397.41;2301911;77;21047;-55
2022/09/04 03:10:22;;;;;;;17.80;4.97;;;;;;;9.73;100.00;99397.72;2306219;77;21044;-56
2022/09/04 03:13:23;;;;;;;16.48;5.10;;;;;;;9.76;100.00;99394.94;2303083;77;21467;-55
2022/09/04 03:16:25;;;;;;;16.00;4.62;;;;;;;9.72;100.00;99396.84;2303185;77;21079;-55
2022/09/04 03:19:26;;;;;;;17.67;5.20;;;;;;;9.73;100.00;99405.10;2302519;77;21011;-55
2022/09/04 03:22:28;;;;;;;19.32;5.55;;;;;;;9.77;100.00;99411.02;2307455;77;20975;-56
2022/09/04 03:25:29;;;;;;;18.27;5.20;;;;;;;9.65;100.00;99405.92;2307374;77;20964;-56
2022/09/04 03:28:32;;;;;;;15.53;5.37;;;;;;;9.57;100.00;99406.30;2304886;77;20948;-55
2022/09/04 03:31:34;;;;;;;17.57;5.17;;;;;;;9.52;100.00;99405.22;2301937;77;21509;-55
2022/09/04 03:34:36;;;;;;;17.10;5.37;;;;;;;9.57;100.00;99402.81;2305784;77;20987;-55
2022/09/04 03:37:37;;;;;;;17.23;5.62;;;;;;;9.61;100.00;99403.06;2299143;77;21485;-55
2022/09/04 03:40:40;;;;;;;16.87;5.67;;;;;;;9.68;100.00;99404.02;2304441;77;20975;-55
2022/09/04 03:43:41;;;;;;;19.60;5.62;;;;;;;9.73;100.00;99402.95;2303127;77;20984;-56
2022/09/04 03:46:43;;;;;;;20.08;6.05;;;;;;;9.68;100.00;99398.78;2304802;77;21039;-56
2022/09/04 03:49:45;;;;;;;17.73;5.20;;;;;;;9.66;100.00;99403.23;2308004;77;21545;-55
2022/09/04 03:52:47;;;;;;;20.40;5.65;;;;;;;9.52;100.00;99398.67;2303908;77;21027;-55
2022/09/04 03:55:48;;;;;;;18.35;5.72;;;;;;;9.48;100.00;99402.79;2297058;77;21474;-55
2022/09/04 03:58:49;;;;;;;17.60;5.85;;;;;;;9.47;100.00;99406.35;2302028;77;20996;-55
2022/09/04 04:01:51;;;;;;;19.80;6.22;;;;;;;9.49;100.00;99407.11;2289460;77;21018;-54
2022/09/04 04:04:53;;;;;;;19.77;6.25;;;;;;;9.62;100.00;99410.00;2304406;77;20975;-55
2022/09/04 04:07:54;;;;;;;19.80;5.67;;;;;;;9.65;100.00;99412.47;2304572;77;21007;-55
2022/09/04 04:10:55;;;;;;;18.75;5.97;;;;;;;9.75;100.00;99415.03;2305649;77;21002;-55
2022/09/04 04:13:57;;;;;;;22.52;6.00;;;;;;;9.88;100.00;99410.05;2304027;77;21046;-55
2022/09/04 04:16:58;;;;;;;18.12;5.42;;;;;;;9.88;100.00;99414.84;2291916;77;21457;-55
2022/09/04 04:20:04;;;;;;;22.07;6.37;;;;;;;9.80;100.00;99419.59;2304228;77;20960;-56
2022/09/04 04:23:03;;;;;;;18.10;5.25;;;;;;;9.74;100.00;99416.41;2282931;77;20988;-55
2022/09/04 04:26:05;;;;;;;19.77;5.55;;;;;;;9.63;100.00;99415.16;2303197;77;20979;-55
2022/09/04 04:29:07;;;;;;;17.10;5.20;;;;;;;9.57;100.00;99414.59;2301293;77;21046;-55
2022/09/04 04:32:10;;;;;;;20.50;5.30;;;;;;;9.65;100.00;99417.23;2301938;77;21012;-54
2022/09/04 04:35:12;;;;;;;19.70;5.60;;;;;;;9.83;100.00;99417.30;2298411;77;21513;-55
2022/09/04 04:38:17;;;;;;;16.73;5.00;;;;;;;10.00;100.00;99416.48;2304269;77;21023;-55
2022/09/04 04:41:20;;;;;;;19.25;5.55;;;;;;;10.07;100.00;99417.88;2284537;77;20953;-55
2022/09/04 04:45:48;;;;;;;17.85;5.80;;;;;;;10.09;100.00;99419.94;2282770;77;21530;-55
2022/09/04 04:47:26;;;;;;;18.48;5.42;;;;;;;10.26;100.00;99423.48;2289303;77;21495;-55
2022/09/04 04:50:27;;;;;;;19.02;5.42;;;;;;;10.41;100.00;99425.38;2304394;77;20999;-55
2022/09/04 04:53:28;;;;;;;18.17;5.15;;;;;;;10.66;100.00;99426.29;2302272;77;21462;-56
2022/09/04 04:56:30;;;;;;;17.75;5.20;;;;;;;10.98;100.00;99425.06;2304349;76;21010;-56
2022/09/04 04:59:32;;;;;;;21.15;5.53;;;;;;;11.18;100.00;99426.61;2298844;77;21443;-56
2022/09/04 05:02:33;;;;;;;19.87;5.55;;;;;;;11.48;100.00;99422.39;2302195;77;21007;-55
2022/09/04 05:05:35;;;;;;;16.80;5.17;;;;;;;11.73;100.00;99426.66;2306348;77;21474;-55
2022/09/04 05:08:36;;;;;;;15.40;4.73;;;;;;;12.07;100.00;99435.30;2303686;77;21070;-56
2022/09/04 05:11:37;;;;;;;18.60;5.10;;;;;;;12.38;100.00;99438.77;2302583;77;21067;-56
2022/09/04 05:14:39;;;;;;;16.30;4.92;;;;;;;12.64;100.00;99439.00;2304814;76;21058;-55
2022/09/04 05:17:41;;;;;;;;;;;;;;;12.85;100.00;99439.98;2308805;77;20983;-55
2022/09/04 05:20:43;;;;;;;14.75;4.35;;;;;;;13.07;100.00;99444.78;2301889;77;20104;-57
2022/09/04 05:23:44;;;;;;;14.53;4.12;;;;;;;13.24;100.00;99445.89;2304453;77;20988;-58
2022/09/04 05:26:45;;;;;;;15.43;4.72;;;;;;;13.37;100.00;99445.17;2303847;77;20940;-58
2022/09/04 05:29:50;;;;;;;15.18;4.42;;;;;;;13.56;100.00;99443.53;2303987;77;21035;-57
2022/09/04 05:32:50;;;;;;;15.18;4.22;;;;;;;13.57;100.00;99447.39;2290302;77;20988;-57
2022/09/04 05:35:52;;;;;;;14.63;4.35;;;;;;;13.79;100.00;99449.97;2297472;77;21051;-58
2022/09/04 05:38:53;;;;;;;13.83;4.30;;;;;;;13.99;100.00;99441.62;2302299;77;20972;-57
2022/09/04 05:41:55;;;;;;;15.63;4.23;;;;;;;14.12;100.00;99448.72;2300059;77;21086;-58
2022/09/04 05:44:57;;;;;;;14.53;4.80;;;;;;;14.23;100.00;99442.27;2301648;77;20979;-58
2022/09/04 05:47:59;;;;;;;14.50;4.30;;;;;;;14.49;100.00;99452.38;2304462;77;21541;-57
2022/09/04 05:51:01;;;;;;;19.17;4.67;;;;;;;14.69;100.00;99462.12;2303918;77;21020;-58
2022/09/04 05:54:02;;;;;;;16.43;4.70;;;;;;;14.79;100.00;99465.81;2304499;77;20991;-57
2022/09/04 05:57:04;;;;;;;17.93;4.77;;;;;;;14.91;100.00;99457.52;2303083;77;21043;-58
2022/09/04 06:00:06;;;;;;;18.10;5.00;;;;;;;14.91;100.00;99457.52;2296762;77;21350;-57
2022/09/04 06:03:08;;;;;;;12.73;4.45;;;;;;;15.16;100.00;99459.80;2305744;77;21016;-59
2022/09/04 06:06:09;;;;;;;15.20;4.83;;;;;;;15.34;100.00;99458.97;2305305;77;21027;-57
2022/09/04 06:09:10;;;;;;;12.93;4.30;;;;;;;15.48;100.00;99460.64;2308428;77;21493;-58
2022/09/04 06:12:12;;;;;;;13.32;4.12;;;;;;;15.67;100.00;99462.80;2303251;77;21015;-57
2022/09/04 06:15:13;;;;;;;13.20;4.70;;;;;;;15.87;100.00;99458.75;2299072;77;21501;-58
2022/09/04 06:18:15;;;;;;;15.70;4.73;;;;;;;16.01;100.00;99459.90;2297716;77;21007;-57
2022/09/04 06:21:16;;;;;;;13.30;4.37;;;;;;;16.08;100.00;99459.81;2306476;77;21012;-57
2022/09/04 06:24:18;;;;;;;11.37;4.10;;;;;;;16.26;100.00;99452.33;2304965;77;20980;-58
2022/09/04 06:27:19;;;;;;;14.63;4.20;;;;;;;16.45;100.00;99462.86;2307578;76;20975;-58
2022/09/04 06:30:23;;;;;;;11.60;3.95;;;;;;;16.79;100.00;99463.78;2286960;77;21027;-58
2022/09/04 06:33:25;;;;;;;14.30;3.63;;;;;;;16.80;100.00;99456.17;2300857;76;21015;-57
2022/09/04 06:36:26;;;;;;;10.93;3.50;;;;;;;17.00;100.00;99459.63;2301309;77;20948;-58
2022/09/04 06:39:29;;;;;;;9.88;3.85;;;;;;;16.92;100.00;99462.39;2307756;76;20980;-58
2022/09/04 06:42:30;;;;;;;10.60;3.33;;;;;;;17.11;100.00;99460.93;2299474;77;20996;-59
2022/09/04 06:45:34;;;;;;;10.55;3.52;;;;;;;17.33;100.00;99468.06;2303282;77;21542;-58
2022/09/04 06:48:35;;;;;;;9.15;3.50;;;;;;;17.27;100.00;99476.50;2300271;77;20979;-59
2022/09/04 06:51:37;;;;;;;10.73;3.30;;;;;;;17.12;100.00;99481.18;2305935;77;21594;-59
2022/09/04 06:54:38;;;;;;;10.25;3.42;;;;;;;17.16;100.00;99470.70;2304816;77;20983;-59
2022/09/04 06:57:40;;;;;;;11.03;3.52;;;;;;;17.36;100.00;99473.11;2306935;77;21431;-58
2022/09/04 07:00:41;;;;;;;11.85;3.52;;;;;;;17.49;100.00;99472.98;2298166;76;20976;-58
2022/09/04 07:03:42;;;;;;;10.45;3.72;;;;;;;17.68;100.00;99476.33;2302764;77;21079;-57
2022/09/04 07:06:44;;;;;;;15.35;4.20;;;;;;;17.90;100.00;99478.58;2305001;77;21249;-58
2022/09/04 07:09:45;;;;;;;12.35;4.03;;;;;;;17.86;100.00;99483.30;2303193;77;20991;-57
2022/09/04 07:12:47;;;;;;;9.95;3.55;;;;;;;18.03;100.00;99487.74;2304155;77;21542;-58
2022/09/04 07:15:48;;;;;;;11.17;3.73;;;;;;;17.92;100.00;99495.27;2304616;77;20968;-58
2022/09/04 07:18:50;;;;;;;9.78;3.55;;;;;;;17.78;100.00;99492.36;2301869;77;22929;-58
2022/09/04 07:21:53;;;;;;;13.58;3.72;;;;;;;17.86;100.00;99493.92;2301649;77;21082;-58
2022/09/04 07:24:55;;;;;;;9.53;3.25;;;;;;;18.06;100.00;99490.14;2302113;77;21066;-58
2022/09/04 07:27:57;;;;;;;10.82;3.72;;;;;;;18.19;100.00;99485.53;2303332;77;20995;-58
2022/09/04 07:31:02;;;;;;;9.90;3.40;;;;;;;18.65;100.00;99495.47;2301452;77;20971;-59
2022/09/04 07:34:03;;;;;;;9.68;3.62;;;;;;;19.19;100.00;99497.09;2291810;77;21001;-58
2022/09/04 07:37:05;;;;;;;12.07;3.50;;;;;;;19.52;100.00;99502.24;2305030;77;21003;-59
2022/09/04 07:40:08;;;;;;;12.50;3.27;;;;;;;19.83;100.00;99500.91;2296753;77;21545;-58
2022/09/04 07:43:11;;;;;;;10.75;3.20;;;;;;;20.07;100.00;99501.38;2304933;77;21007;-58
2022/09/04 07:46:13;;;;;;;11.18;3.70;;;;;;;20.07;100.00;99501.38;2301144;77;20960;-59
2022/09/04 07:49:14;;;;;;;8.45;3.20;;;;;;;20.06;100.00;99511.66;2305773;76;20976;-58
2022/09/04 07:52:17;;;;;;;12.10;2.92;;;;;;;20.05;100.00;99496.66;2305448;77;21471;-59
2022/09/04 07:55:18;;;;;;;10.78;3.22;;;;;;;20.25;100.00;99506.01;2301676;77;21043;-58
2022/09/04 07:58:20;;;;;;;10.50;3.62;;;;;;;20.41;100.00;99508.11;2292655;77;20968;-58
2022/09/04 08:01:22;;;;;;;10.85;3.50;;;;;;;20.51;100.00;99512.12;2306332;77;20996;-57
2022/09/04 08:04:23;;;;;;;10.93;3.55;;;;;;;20.84;100.00;99518.02;2305854;77;21090;-58
2022/09/04 08:07:24;;;;;;;9.33;3.62;;;;;;;21.08;100.00;99518.88;2305165;77;20991;-58
2022/09/04 08:10:26;;;;;;;9.95;3.47;;;;;;;21.13;100.00;99525.11;2303308;77;21439;-58
2022/09/04 08:13:28;;;;;;;14.00;3.72;;;;;;;20.84;99.32;99518.84;2304136;77;20995;-57
2022/09/04 08:16:30;;;;;;;9.48;3.58;;;;;;;20.42;100.00;99521.80;2306519;77;21003;-58
2022/09/04 08:19:31;;;;;;;11.95;4.05;;;;;;;20.59;100.00;99533.08;2301821;77;21012;-57
2022/09/04 08:22:33;;;;;;;8.98;3.17;;;;;;;20.76;100.00;99538.22;2306553;77;21486;-59
2022/09/04 08:25:35;;;;;;;9.98;3.60;;;;;;;20.85;100.00;99537.86;2304988;77;21090;-57
2022/09/04 08:28:36;;;;;;;10.95;3.67;;;;;;;21.11;100.00;99545.25;2296657;77;21447;-58
2022/09/04 08:31:38;;;;;;;;;;;;;;;21.22;100.00;99545.56;2305642;77;21102;-58
2022/09/04 08:34:41;;;;;;;13.22;4.10;;;;;;;21.34;99.25;99547.08;2305607;77;20099;-58
2022/09/04 08:37:42;;;;;;;16.00;3.80;;;;;;;21.52;98.82;99543.67;2301851;77;21022;-57
2022/09/04 08:40:45;;;;;;;14.00;3.95;;;;;;;21.72;98.32;99539.09;2296231;77;20971;-58
2022/09/04 08:43:46;;;;;;;13.40;4.15;;;;;;;21.76;96.43;99539.15;2302348;77;21533;-57
2022/09/04 08:46:48;;;;;;;12.45;3.77;;;;;;;21.72;95.36;99533.75;2302382;76;21024;-58
2022/09/04 08:49:52;;;;;;;11.95;3.77;;;;;;;21.91;91.98;99544.34;2291015;77;21003;-58
2022/09/04 08:52:53;;;;;;;11.10;3.55;;;;;;;21.85;92.86;99534.74;2290230;77;20964;-57
2022/09/04 08:55:54;;;;;;;13.35;3.70;;;;;;;22.04;96.57;99535.98;2307312;77;20980;-58
2022/09/04 08:58:56;;;;;;;8.50;3.02;;;;;;;22.15;93.51;99545.12;2302577;77;21024;-58
2022/09/04 09:02:00;;;;;;;8.95;3.12;;;;;;;22.54;91.16;99544.03;2300017;77;21502;-58
2022/09/04 09:05:01;;;;;;;8.73;3.47;;;;;;;22.86;90.82;99541.27;2286545;77;21497;-58
2022/09/04 09:08:02;;;;;;;8.78;3.12;;;;;;;23.32;91.05;99535.25;2306792;77;20949;-58
2022/09/04 09:11:04;;;;;;;10.70;3.30;;;;;;;23.47;90.13;99542.69;2306809;76;21063;-58
2022/09/04 09:14:05;;;;;;;8.28;3.15;;;;;;;23.80;85.64;99536.97;2306196;77;20984;-58
2022/09/04 09:17:11;;;;;;;7.62;2.85;;;;;;;23.38;80.36;99544.99;2303011;77;21109;-58
2022/09/04 09:20:10;;;;;;;10.30;3.25;;;;;;;23.20;87.43;99551.22;2279864;77;20979;-58
2022/09/04 09:23:12;;;;;;;11.93;3.35;;;;;;;23.44;82.24;99556.39;2306291;77;21486;-58
2022/09/04 09:26:13;;;;;;;9.90;3.30;;;;;;;23.26;77.51;99549.27;2302829;77;20992;-58
2022/09/04 09:29:15;;;;;;;8.28;2.92;;;;;;;22.74;83.14;99545.17;2287332;77;21446;-58
2022/09/04 09:32:16;;;;;;;11.60;3.25;;;;;;;22.66;81.33;99548.63;2299119;77;21003;-58
2022/09/04 09:35:20;;;;;;;11.83;3.30;;;;;;;22.28;82.95;99543.89;2307830;77;21569;-58
2022/09/04 09:38:21;;;;;;;8.43;3.10;;;;;;;22.44;79.62;99540.09;2290186;77;21530;-59
2022/09/04 09:41:23;;;;;;;8.68;2.70;;;;;;;22.50;77.43;99534.63;2303878;77;20991;-59
2022/09/04 09:44:25;;;;;;;9.15;3.02;;;;;;;22.61;81.93;99537.55;2301876;77;21043;-58
2022/09/04 09:47:29;;;;;;;10.85;3.17;;;;;;;22.74;74.86;99539.83;2286572;77;20991;-58
2022/09/04 09:50:32;;;;;;;9.45;3.02;;;;;;;22.99;82.49;99540.36;2289573;77;21008;-58
2022/09/04 09:53:34;;;;;;;9.03;2.90;;;;;;;23.55;83.63;99544.08;2305991;77;21482;-58
2022/09/04 09:56:35;;;;;;;8.78;2.75;;;;;;;24.11;75.73;99540.45;2300437;77;20971;-60
2022/09/04 09:59:36;;;;;;;8.03;2.60;;;;;;;24.11;75.73;99540.45;2298282;77;21101;-59
2022/09/04 10:02:38;;;;;;;7.90;2.80;;;;;;;24.27;74.65;99527.59;2308489;76;20976;-58
2022/09/04 10:05:40;;;;;;;5.45;2.40;;;;;;;24.09;77.79;99534.41;2305315;77;21022;-58
2022/09/04 10:08:41;;;;;;;8.88;2.27;;;;;;;24.31;76.39;99531.62;2307360;77;20983;-58
2022/09/04 10:11:43;;;;;;;5.33;2.30;;;;;;;24.59;76.83;99536.66;2304478;77;20983;-58
2022/09/04 10:14:44;;;;;;;;;;;;;;;24.81;68.61;99533.00;2309122;77;21576;-58
2022/09/04 10:17:46;;;;;;;6.87;2.12;;;;;;;24.78;73.52;99540.05;2304317;76;20107;-57
2022/09/04 10:20:48;;;;;;;7.12;2.35;;;;;;;25.05;72.58;99548.24;2304520;77;21454;-59
2022/09/04 10:23:49;;;;;;;4.12;2.08;;;;;;;25.48;73.26;99531.91;2302361;77;20976;-57
2022/09/04 10:26:51;;;;;;;8.35;2.60;;;;;;;26.09;71.39;99534.34;2305555;77;21515;-58
2022/09/04 10:29:52;;;;;;;5.87;2.52;;;;;;;26.30;65.77;99540.10;2303210;77;20991;-58
2022/09/04 10:32:54;;;;;;;6.45;2.75;;;;;;;25.96;70.76;99541.27;2304538;77;21543;-57
2022/09/04 10:35:56;;;;;;;6.40;2.37;;;;;;;25.88;65.10;99532.23;2303877;77;21011;-58
2022/09/04 10:42:01;;;;;;;6.37;2.60;;;;;;;25.38;69.31;99530.77;2286396;77;21470;-58
2022/09/04 10:45:03;;;;;;;6.70;2.15;;;;;;;24.76;66.78;99528.66;2304634;77;21000;-58
2022/09/04 10:48:04;;;;;;;5.47;2.08;;;;;;;24.17;69.35;99538.96;2304308;77;20979;-59
2022/09/04 10:51:07;;;;;;;5.72;2.00;;;;;;;24.19;71.20;99544.50;2303491;77;21018;-59
2022/09/04 10:54:09;;;;;;;5.20;2.00;;;;;;;23.93;67.54;99542.41;2301773;77;21023;-58
2022/09/04 10:57:11;;;;;;;6.00;2.10;;;;;;;23.40;66.63;99539.80;2304588;77;20979;-58
2022/09/04 11:00:13;;;;;;;4.65;2.15;;;;;;;23.11;68.85;99544.16;2302542;77;21035;-58
2022/09/04 11:03:14;;;;;;;;;;;;;;;23.09;70.33;99544.28;2306568;77;21083;-58
2022/09/04 11:06:16;;;;;;;4.87;1.82;;;;;;;23.32;68.74;99544.61;2295072;77;20480;-58
2022/09/04 11:09:17;;;;;;;5.62;1.85;;;;;;;23.22;73.59;99549.24;2304193;77;20973;-58
2022/09/04 11:12:19;;;;;;;5.17;2.30;;;;;;;23.87;71.54;99551.42;2300619;77;21486;-59
2022/09/04 11:15:20;;;;;;;5.97;2.20;;;;;;;24.19;67.69;99556.56;2306067;77;21018;-58
2022/09/04 11:18:21;;;;;;;7.00;2.40;;;;;;;24.08;70.42;99554.66;2302568;77;20944;-58
2022/09/04 11:21:23;;;;;;;8.00;2.60;;;;;;;24.18;70.93;99560.23;2292356;77;20983;-59
2022/09/04 11:24:24;;;;;;;5.75;2.22;;;;;;;24.52;69.12;99551.26;2305031;77;20987;-58
2022/09/04 11:27:28;;;;;;;7.85;2.10;;;;;;;25.11;69.84;99544.05;2305113;77;21123;-57
2022/09/04 11:30:29;;;;;;;5.42;2.47;;;;;;;25.50;65.60;99544.16;2306262;77;21514;-57
2022/09/04 11:33:32;;;;;;;8.35;2.58;;;;;;;25.51;68.03;99547.16;2297479;77;20975;-59
2022/09/04 11:36:34;;;;;;;6.62;2.08;;;;;;;25.47;67.78;99545.82;2306368;77;20988;-58
2022/09/04 11:39:35;;;;;;;5.00;2.22;;;;;;;25.80;68.84;99549.73;2300823;77;20975;-58
2022/09/04 11:42:40;;;;;;;;;;;;;;;26.16;65.66;99549.27;2305181;77;21086;-57
2022/09/04 11:45:40;;;;;;;4.87;2.00;;;;;;;26.62;66.30;99549.28;2258533;77;20114;-58
2022/09/04 11:48:42;;;;;;;;;;;;;;;26.94;63.71;99539.80;2306561;77;21609;-58
2022/09/04 11:51:44;;;;;;;6.28;2.37;;;;;;;26.66;59.32;99540.33;2295440;77;20157;-58
2022/09/04 11:54:45;;;;;;;5.85;2.00;;;;;;;26.72;66.19;99544.18;2287258;77;21541;-59
2022/09/04 11:57:47;;;;;;;5.75;2.20;;;;;;;27.34;66.27;99544.94;2307099;77;21011;-58
2022/09/04 12:00:49;;;;;;;6.67;2.05;;;;;;;27.97;62.91;99536.80;2303382;77;21494;-59
2022/09/04 12:03:50;;;;;;;5.75;2.22;;;;;;;28.40;62.78;99541.94;2306220;77;20991;-59
2022/09/04 12:06:52;;;;;;;6.03;1.98;;;;;;;27.63;54.03;99536.89;2303018;77;20995;-59
2022/09/04 12:09:53;;;;;;;7.42;2.20;;;;;;;26.83;57.25;99538.89;2304536;77;20952;-59
2022/09/04 12:12:56;;;;;;;8.15;2.45;;;;;;;25.62;58.84;99540.59;2298173;77;20952;-59
2022/09/04 12:15:57;;;;;;;6.85;2.47;;;;;;;24.75;63.17;99541.22;2305396;77;20980;-59
2022/09/04 12:18:59;;;;;;;7.05;2.52;;;;;;;24.52;64.16;99543.70;2305292;77;21518;-59
2022/09/04 12:22:01;;;;;;;;;;;;;;;24.42;63.57;99543.02;2307257;77;20977;-59
2022/09/04 12:25:02;;;;;;;5.92;1.92;;;;;;;24.29;64.90;99546.19;2301400;77;20421;-58
2022/09/04 12:28:04;;;;;;;;;;;;;;;24.18;65.64;99541.98;2310146;77;20972;-58
2022/09/04 12:31:05;;;;;;;7.08;2.15;;;;;;;23.97;65.00;99542.42;2307271;77;20417;-58
2022/09/04 12:34:07;;;;;;;4.70;1.90;;;;;;;23.67;66.01;99542.77;2303252;77;20995;-58
2022/09/04 12:37:10;;;;;;;4.35;1.98;;;;;;;23.59;67.62;99551.27;2297955;77;21641;-58
2022/09/04 12:40:12;;;;;;;8.48;2.35;;;;;;;23.53;68.79;99550.92;2304833;76;21038;-60
2022/09/04 12:43:15;;;;;;;8.80;2.10;;;;;;;23.55;67.83;99549.91;2303237;77;21467;-58
2022/09/04 12:46:16;;;;;;;5.78;2.45;;;;;;;23.56;68.63;99546.23;2295063;77;21050;-58
2022/09/04 12:49:18;;;;;;;6.17;2.22;;;;;;;23.87;67.43;99544.72;2302498;77;21480;-58
2022/09/04 12:52:19;;;;;;;8.13;2.40;;;;;;;23.84;67.10;99536.16;2298962;77;20987;-58
2022/09/04 12:55:21;;;;;;;6.28;1.95;;;;;;;23.84;67.25;99536.16;2304153;77;21513;-59
2022/09/04 12:58:23;;;;;;;7.03;2.27;;;;;;;23.82;67.95;99537.66;2304635;77;20992;-57
2022/09/04 13:01:28;;;;;;;7.37;2.52;;;;;;;23.89;68.90;99539.20;2306851;77;21475;-58
2022/09/04 13:04:27;;;;;;;5.83;2.25;;;;;;;24.07;68.28;99540.44;2292127;77;21497;-58
2022/09/04 13:07:29;;;;;;;;;;;;;;;24.16;68.20;99535.94;2308225;77;20996;-59
2022/09/04 13:10:32;;;;;;;7.62;2.12;;;;;;;24.26;67.51;99539.81;2306778;77;20173;-58
2022/09/04 13:13:34;;;;;;;6.60;2.12;;;;;;;24.95;67.13;99539.03;2304707;76;21458;-58
2022/09/04 13:16:36;;;;;;;8.48;2.20;;;;;;;25.75;63.93;99527.42;2305398;77;20983;-59
2022/09/04 13:19:37;;;;;;;5.47;2.00;;;;;;;26.04;64.99;99520.59;2303818;77;21505;-58
2022/09/04 13:22:39;;;;;;;11.08;2.33;;;;;;;26.54;61.56;99526.99;2305037;77;20972;-58
2022/09/04 13:25:41;;;;;;;5.45;1.98;;;;;;;26.31;59.56;99531.86;2307153;77;21047;-59
2022/09/04 13:28:44;;;;;;;5.87;1.92;;;;;;;26.51;61.10;99523.33;2302462;77;21050;-58
2022/09/04 13:31:46;;;;;;;7.20;2.33;;;;;;;26.67;61.41;99527.73;2300819;77;21051;-59
2022/09/04 13:34:47;;;;;;;5.47;2.15;;;;;;;26.95;58.75;99525.30;2305684;77;21062;-58
2022/09/04 13:37:50;;;;;;;5.95;2.27;;;;;;;26.82;56.99;99521.89;2297729;77;20980;-58
2022/09/04 13:40:53;;;;;;;6.28;2.27;;;;;;;25.90;58.89;99532.91;2301349;77;21010;-57
2022/09/04 13:43:55;;;;;;;9.45;2.50;;;;;;;25.35;57.73;99535.14;2300465;77;21518;-58
2022/09/04 13:46:56;;;;;;;4.92;2.15;;;;;;;24.42;59.01;99532.30;2307550;77;21039;-58
2022/09/04 13:49:58;;;;;;;7.22;2.35;;;;;;;24.58;59.91;99533.63;2305202;77;21110;-57
2022/09/04 13:53:01;;;;;;;;;;;;;;;24.79;60.71;99535.03;2300057;77;20987;-58
2022/09/04 13:56:05;;;;;;;7.75;1.95;;;;;;;25.25;62.64;99534.78;2272330;77;20098;-59
2022/09/04 13:59:08;;;;;;;;;;;;;;;25.58;61.79;99536.05;2302890;77;20964;-59
2022/09/04 14:02:11;;;;;;;7.28;2.40;;;;;;;25.56;61.25;99534.06;2290094;77;20135;-58
2022/09/04 14:05:12;;;;;;;6.80;2.55;;;;;;;25.44;62.01;99541.31;2304478;77;20991;-58
2022/09/04 14:08:15;;;;;;;;;;;;;;;25.34;63.51;99538.34;2305364;77;21542;-58
2022/09/04 14:11:17;;;;;;;10.00;3.20;;;;;;;25.48;63.96;99542.66;2304378;77;20433;-60
2022/09/04 14:14:19;;;;;;;9.25;2.30;;;;;;;25.68;64.02;99544.43;2301544;77;20972;-58